Armonk, New York
Current Conditions -  °F | °C
As of 4:56 AM on Saturday 29 Nov 2014 (Local Time) from KHPN Reporting Station
Clear Clear  
Wind Chill: 23°   Ceiling: Unl
Heat Index: 23°   Visibility: 10mi
Dew Point: 14°   Wind: 3mph
Humidity: 68%   Direction: 280°W
Pressure: 30.27"   Gusts: NA
Location:  41.13°N, 73.71°W
Report Text: KHPN 290956Z 28003KT 10SM CLR M05/M10 A3027 RMK AO2 SLP263 T10501100
Loading
Personal Weather Stations






























Interactive Weather Map New forecast layout! Learn more

10-Day Weather Forecast

Advertisements
Track Severe Weather on mobile